VLG7PV LEBL-LECO
Flight info
| Callsign | VLG7PV |
|---|---|
| Flight time | 1h 21m |
| Altitude | 32000 |
| Route | LOBAR N725 LOMDA |
| Aircraft | A320/M-SDFGHIJ1LORVWXY/LB1 |
Departure
| Time | 2026-05-04 07:12 |
|---|---|
| Airport | Josep Tarradellas Barcelona-El Prat Airport (LEBL) |
Arrival
| Time | 2026-05-04 08:33 |
|---|---|
| Airport | A Coruña Airport (LECO) |
| Time | Latitude | Longitude | Altitude | Speed | Heading |
|---|---|---|---|---|---|
| 2026-05-04 06:34 | 41.29174 | 2.08013 | 46 ft | 0 kts | 155° |
| 2026-05-04 06:59 | 41.29187 | 2.08005 | 21 ft | 4 kts | 155° |
| 2026-05-04 06:59 | 41.29211 | 2.07990 | 20 ft | 4 kts | 155° |
| 2026-05-04 07:01 | 41.29225 | 2.07904 | 22 ft | 0 kts | 65° |
| 2026-05-04 07:02 | 41.29229 | 2.07914 | 21 ft | 4 kts | 65° |
| 2026-05-04 07:02 | 41.29249 | 2.07974 | 19 ft | 9 kts | 65° |
| 2026-05-04 07:02 | 41.29276 | 2.08054 | 19 ft | 10 kts | 66° |
| 2026-05-04 07:03 | 41.29308 | 2.08144 | 21 ft | 12 kts | 65° |
| 2026-05-04 07:03 | 41.29344 | 2.08249 | 20 ft | 13 kts | 65° |
| 2026-05-04 07:03 | 41.29369 | 2.08321 | 21 ft | 8 kts | 65° |
| 2026-05-04 07:03 | 41.29346 | 2.08388 | 19 ft | 9 kts | 144° |
| 2026-05-04 07:04 | 41.29284 | 2.08428 | 20 ft | 11 kts | 155° |
| 2026-05-04 07:04 | 41.29208 | 2.08474 | 21 ft | 14 kts | 156° |
| 2026-05-04 07:04 | 41.29106 | 2.08535 | 17 ft | 19 kts | 155° |
| 2026-05-04 07:04 | 41.28984 | 2.08610 | 18 ft | 14 kts | 156° |
| 2026-05-04 07:05 | 41.28902 | 2.08658 | 16 ft | 9 kts | 155° |
| 2026-05-04 07:05 | 41.28860 | 2.08719 | 17 ft | 10 kts | 87° |
| 2026-05-04 07:05 | 41.28894 | 2.08820 | 16 ft | 14 kts | 65° |
| 2026-05-04 07:05 | 41.28938 | 2.08949 | 17 ft | 17 kts | 65° |
| 2026-05-04 07:06 | 41.29051 | 2.09279 | 17 ft | 23 kts | 65° |
| 2026-05-04 07:06 | 41.29120 | 2.09481 | 19 ft | 25 kts | 65° |
| 2026-05-04 07:06 | 41.29193 | 2.09697 | 17 ft | 20 kts | 66° |
| 2026-05-04 07:07 | 41.29244 | 2.09846 | 17 ft | 19 kts | 66° |
| 2026-05-04 07:08 | 41.29285 | 2.10226 | 14 ft | 9 kts | 111° |
| 2026-05-04 07:09 | 41.29244 | 2.10304 | 14 ft | 11 kts | 160° |
| 2026-05-04 07:09 | 41.29205 | 2.10278 | 15 ft | 0 kts | 241° |
| 2026-05-04 07:09 | 41.29175 | 2.10198 | 16 ft | 39 kts | 244° |
| 2026-05-04 07:10 | 41.28959 | 2.09558 | 21 ft | 109 kts | 245° |
| 2026-05-04 07:10 | 41.28570 | 2.08423 | 61 ft | 155 kts | 246° |
| 2026-05-04 07:12 | 41.20303 | 2.04288 | 4934 ft | 213 kts | 195° |
| 2026-05-04 07:12 | 41.18921 | 2.03535 | 5744 ft | 218 kts | 215° |
| 2026-05-04 07:12 | 41.17771 | 2.02159 | 6482 ft | 228 kts | 231° |
| 2026-05-04 07:12 | 41.16794 | 2.00495 | 7402 ft | 229 kts | 232° |
| 2026-05-04 07:13 | 41.15823 | 1.98812 | 8341 ft | 232 kts | 233° |
| 2026-05-04 07:13 | 41.14906 | 1.96993 | 8979 ft | 249 kts | 247° |
| 2026-05-04 07:13 | 41.14656 | 1.94643 | 9487 ft | 271 kts | 277° |
| 2026-05-04 07:14 | 41.18261 | 1.84671 | 12235 ft | 318 kts | 293° |
| 2026-05-04 07:14 | 41.19263 | 1.82042 | 13150 ft | 321 kts | 292° |
| 2026-05-04 07:15 | 41.20274 | 1.79384 | 14026 ft | 324 kts | 292° |
| 2026-05-04 07:15 | 41.21292 | 1.76695 | 14833 ft | 327 kts | 292° |
| 2026-05-04 07:15 | 41.22321 | 1.73979 | 15627 ft | 330 kts | 292° |
| 2026-05-04 07:15 | 41.23357 | 1.71237 | 16409 ft | 333 kts | 292° |
| 2026-05-04 07:16 | 41.24404 | 1.68469 | 17182 ft | 337 kts | 292° |
| 2026-05-04 07:16 | 41.25457 | 1.65679 | 17955 ft | 340 kts | 292° |
| 2026-05-04 07:16 | 41.26523 | 1.62848 | 18684 ft | 344 kts | 291° |
| 2026-05-04 07:16 | 41.27599 | 1.59990 | 19374 ft | 347 kts | 291° |
| 2026-05-04 07:17 | 41.28684 | 1.57103 | 20089 ft | 351 kts | 291° |
| 2026-05-04 07:17 | 41.29778 | 1.54187 | 20833 ft | 354 kts | 291° |
| 2026-05-04 07:17 | 41.30881 | 1.51244 | 21558 ft | 357 kts | 290° |
| 2026-05-04 07:17 | 41.31996 | 1.48267 | 22232 ft | 360 kts | 290° |
| 2026-05-04 07:18 | 41.33120 | 1.45272 | 22930 ft | 364 kts | 290° |
| 2026-05-04 07:18 | 41.34254 | 1.42246 | 23626 ft | 368 kts | 290° |
| 2026-05-04 07:18 | 41.35400 | 1.39183 | 24185 ft | 372 kts | 290° |
| 2026-05-04 07:18 | 41.36560 | 1.36088 | 24784 ft | 375 kts | 290° |
| 2026-05-04 07:19 | 41.37725 | 1.32974 | 25378 ft | 378 kts | 289° |
| 2026-05-04 07:19 | 41.38898 | 1.29829 | 26000 ft | 380 kts | 289° |
| 2026-05-04 07:19 | 41.40079 | 1.26662 | 26623 ft | 383 kts | 289° |
| 2026-05-04 07:19 | 41.41266 | 1.23468 | 27221 ft | 386 kts | 289° |
| 2026-05-04 07:20 | 41.42461 | 1.20244 | 27828 ft | 389 kts | 289° |
| 2026-05-04 07:20 | 41.43662 | 1.17008 | 28429 ft | 392 kts | 289° |
| 2026-05-04 07:20 | 41.44875 | 1.13736 | 29067 ft | 394 kts | 288° |
| 2026-05-04 07:20 | 41.46091 | 1.10455 | 29689 ft | 396 kts | 289° |
| 2026-05-04 07:22 | 41.54808 | 0.86792 | 32005 ft | 418 kts | 289° |
| 2026-05-04 07:22 | 41.56094 | 0.83301 | 32021 ft | 420 kts | 289° |
| 2026-05-04 07:23 | 41.58673 | 0.76289 | 32036 ft | 421 kts | 289° |
| 2026-05-04 07:23 | 41.61240 | 0.69262 | 31994 ft | 420 kts | 288° |
| 2026-05-04 07:24 | 41.63786 | 0.62281 | 32008 ft | 420 kts | 288° |
| 2026-05-04 07:24 | 41.66346 | 0.55257 | 32000 ft | 420 kts | 288° |
| 2026-05-04 07:26 | 41.75977 | 0.26926 | 32024 ft | 412 kts | 281° |
| 2026-05-04 07:27 | 41.77699 | 0.19608 | 32040 ft | 412 kts | 281° |
| 2026-05-04 07:27 | 41.79412 | 0.12271 | 32022 ft | 413 kts | 281° |
| 2026-05-04 07:28 | 41.81145 | 0.04917 | 32006 ft | 414 kts | 281° |
| 2026-05-04 07:28 | 41.82871 | -0.02438 | 32026 ft | 414 kts | 281° |
| 2026-05-04 07:29 | 41.84310 | -0.08609 | 32013 ft | 414 kts | 281° |
| 2026-05-04 07:29 | 41.86012 | -0.15949 | 32003 ft | 414 kts | 281° |
| 2026-05-04 07:30 | 41.87718 | -0.23337 | 31988 ft | 415 kts | 281° |
| 2026-05-04 07:30 | 41.89429 | -0.30778 | 31995 ft | 415 kts | 281° |
| 2026-05-04 07:31 | 41.91119 | -0.38137 | 32001 ft | 415 kts | 281° |
| 2026-05-04 07:33 | 41.97896 | -0.67780 | 31978 ft | 415 kts | 281° |
| 2026-05-04 07:33 | 41.99575 | -0.75188 | 31993 ft | 415 kts | 280° |
| 2026-05-04 07:34 | 42.01251 | -0.82625 | 31994 ft | 416 kts | 280° |
| 2026-05-04 07:34 | 42.02925 | -0.90079 | 31986 ft | 417 kts | 280° |
| 2026-05-04 07:35 | 42.04600 | -0.97549 | 31977 ft | 417 kts | 280° |
| 2026-05-04 07:35 | 42.06265 | -1.05023 | 31976 ft | 417 kts | 280° |
| 2026-05-04 07:36 | 42.07923 | -1.12498 | 31974 ft | 417 kts | 280° |
| 2026-05-04 07:38 | 42.14541 | -1.42500 | 31980 ft | 418 kts | 280° |
| 2026-05-04 07:38 | 42.16179 | -1.50013 | 31976 ft | 418 kts | 280° |
| 2026-05-04 07:39 | 42.17814 | -1.57523 | 31998 ft | 417 kts | 279° |
| 2026-05-04 07:39 | 42.19448 | -1.65046 | 31994 ft | 418 kts | 279° |
| 2026-05-04 07:40 | 42.21080 | -1.72575 | 31974 ft | 418 kts | 279° |
| 2026-05-04 07:40 | 42.22705 | -1.80115 | 31967 ft | 419 kts | 279° |
| 2026-05-04 07:41 | 42.24312 | -1.87613 | 31965 ft | 419 kts | 279° |
| 2026-05-04 07:41 | 42.25943 | -1.95218 | 31989 ft | 419 kts | 279° |
| 2026-05-04 07:42 | 42.27551 | -2.02790 | 31968 ft | 420 kts | 279° |
| 2026-05-04 07:42 | 42.29153 | -2.10311 | 31969 ft | 420 kts | 279° |
| 2026-05-04 07:43 | 42.30764 | -2.17908 | 31977 ft | 420 kts | 279° |
| 2026-05-04 07:43 | 42.32375 | -2.25553 | 31985 ft | 421 kts | 279° |
| 2026-05-04 07:44 | 42.33968 | -2.33113 | 31995 ft | 421 kts | 279° |
| 2026-05-04 07:44 | 42.35567 | -2.40743 | 31985 ft | 423 kts | 279° |
| 2026-05-04 07:45 | 42.37162 | -2.48396 | 31979 ft | 423 kts | 279° |
| 2026-05-04 07:45 | 42.38751 | -2.56070 | 31992 ft | 424 kts | 279° |
| 2026-05-04 07:46 | 42.40334 | -2.63761 | 31968 ft | 425 kts | 279° |
| 2026-05-04 07:46 | 42.41926 | -2.71483 | 31967 ft | 427 kts | 279° |
| 2026-05-04 07:47 | 42.43526 | -2.79233 | 31947 ft | 429 kts | 279° |
| 2026-05-04 07:49 | 42.47815 | -3.10773 | 31981 ft | 426 kts | 273° |
| 2026-05-04 07:49 | 42.48677 | -3.18713 | 31965 ft | 426 kts | 272° |
| 2026-05-04 07:50 | 42.49530 | -3.26665 | 31979 ft | 427 kts | 272° |
| 2026-05-04 07:50 | 42.50378 | -3.34628 | 31986 ft | 427 kts | 272° |
| 2026-05-04 07:51 | 42.51228 | -3.42601 | 31991 ft | 427 kts | 272° |
| 2026-05-04 07:51 | 42.52070 | -3.50590 | 32002 ft | 428 kts | 273° |
| 2026-05-04 07:52 | 42.52904 | -3.58574 | 32000 ft | 428 kts | 273° |
| 2026-05-04 07:52 | 42.53735 | -3.66580 | 31997 ft | 429 kts | 273° |
| 2026-05-04 07:54 | 42.57009 | -3.98712 | 31993 ft | 432 kts | 273° |
| 2026-05-04 07:55 | 42.57817 | -4.06783 | 31985 ft | 432 kts | 273° |
| 2026-05-04 07:55 | 42.58620 | -4.14867 | 31985 ft | 432 kts | 273° |
| 2026-05-04 07:56 | 42.59416 | -4.22959 | 31990 ft | 433 kts | 273° |
| 2026-05-04 07:56 | 42.60205 | -4.31056 | 31988 ft | 433 kts | 273° |
| 2026-05-04 07:57 | 42.60995 | -4.39152 | 31995 ft | 433 kts | 273° |
| 2026-05-04 07:57 | 42.61781 | -4.47259 | 32000 ft | 433 kts | 273° |
| 2026-05-04 07:58 | 42.62553 | -4.55312 | 32001 ft | 433 kts | 272° |
| 2026-05-04 07:58 | 42.63325 | -4.63428 | 32012 ft | 434 kts | 273° |
| 2026-05-04 07:59 | 42.64089 | -4.71556 | 32004 ft | 434 kts | 273° |
| 2026-05-04 07:59 | 42.64841 | -4.79695 | 32004 ft | 435 kts | 273° |
| 2026-05-04 08:00 | 42.65598 | -4.87831 | 31998 ft | 434 kts | 273° |
| 2026-05-04 08:02 | 42.68549 | -5.20461 | 31994 ft | 435 kts | 274° |
| 2026-05-04 08:02 | 42.69276 | -5.28630 | 31994 ft | 435 kts | 274° |
| 2026-05-04 08:03 | 42.69989 | -5.36805 | 32003 ft | 436 kts | 274° |
| 2026-05-04 08:03 | 42.70692 | -5.44988 | 31996 ft | 436 kts | 274° |
| 2026-05-04 08:04 | 42.71412 | -5.53175 | 31999 ft | 436 kts | 274° |
| 2026-05-04 08:04 | 42.72122 | -5.61361 | 31997 ft | 436 kts | 274° |
| 2026-05-04 08:05 | 42.72825 | -5.69554 | 32001 ft | 436 kts | 274° |
| 2026-05-04 08:05 | 42.73521 | -5.77753 | 32010 ft | 436 kts | 275° |
| 2026-05-04 08:06 | 42.74210 | -5.85951 | 32014 ft | 436 kts | 275° |
| 2026-05-04 08:06 | 42.74896 | -5.94142 | 32022 ft | 436 kts | 275° |
| 2026-05-04 08:08 | 42.77564 | -6.26940 | 32048 ft | 435 kts | 275° |
| 2026-05-04 08:10 | 42.80111 | -6.59618 | 31044 ft | 434 kts | 275° |
| 2026-05-04 08:11 | 42.80425 | -6.63696 | 30696 ft | 434 kts | 275° |
| 2026-05-04 08:11 | 42.81051 | -6.71870 | 29645 ft | 434 kts | 275° |
| 2026-05-04 08:11 | 42.81362 | -6.75965 | 29175 ft | 435 kts | 275° |
| 2026-05-04 08:12 | 42.81674 | -6.80075 | 28695 ft | 436 kts | 275° |
| 2026-05-04 08:12 | 42.81982 | -6.84185 | 28227 ft | 437 kts | 275° |
| 2026-05-04 08:12 | 42.82288 | -6.88303 | 27750 ft | 437 kts | 276° |
| 2026-05-04 08:12 | 42.82595 | -6.92430 | 27266 ft | 438 kts | 276° |
| 2026-05-04 08:13 | 42.82903 | -6.96566 | 26780 ft | 439 kts | 276° |
| 2026-05-04 08:13 | 42.83207 | -7.00706 | 26282 ft | 440 kts | 276° |
| 2026-05-04 08:13 | 42.83508 | -7.04840 | 25784 ft | 437 kts | 276° |
| 2026-05-04 08:13 | 42.83806 | -7.08951 | 25256 ft | 434 kts | 276° |
| 2026-05-04 08:14 | 42.84102 | -7.13025 | 24740 ft | 431 kts | 276° |
| 2026-05-04 08:14 | 42.84397 | -7.17074 | 24204 ft | 428 kts | 276° |
| 2026-05-04 08:14 | 42.84590 | -7.19792 | 23848 ft | 426 kts | 276° |
| 2026-05-04 08:16 | 42.93051 | -7.43817 | 20080 ft | 403 kts | 306° |
| 2026-05-04 08:16 | 42.94717 | -7.46877 | 19551 ft | 401 kts | 305° |
| 2026-05-04 08:16 | 42.96375 | -7.49934 | 19022 ft | 399 kts | 305° |
| 2026-05-04 08:17 | 42.98020 | -7.52972 | 18498 ft | 397 kts | 305° |
| 2026-05-04 08:17 | 42.99656 | -7.55996 | 17939 ft | 395 kts | 305° |
| 2026-05-04 08:17 | 43.01262 | -7.58963 | 17424 ft | 392 kts | 305° |
| 2026-05-04 08:17 | 43.02898 | -7.61985 | 16897 ft | 388 kts | 305° |
| 2026-05-04 08:19 | 43.13784 | -7.82184 | 13425 ft | 367 kts | 305° |
| 2026-05-04 08:19 | 43.15297 | -7.85000 | 12950 ft | 365 kts | 305° |
| 2026-05-04 08:20 | 43.16797 | -7.87791 | 12484 ft | 363 kts | 305° |
| 2026-05-04 08:20 | 43.18260 | -7.90522 | 12111 ft | 354 kts | 305° |
| 2026-05-04 08:20 | 43.19676 | -7.93168 | 11974 ft | 336 kts | 305° |
| 2026-05-04 08:20 | 43.21028 | -7.95696 | 11848 ft | 321 kts | 305° |
| 2026-05-04 08:21 | 43.22341 | -7.98147 | 11704 ft | 309 kts | 305° |
| 2026-05-04 08:21 | 43.23598 | -8.00495 | 11533 ft | 300 kts | 305° |
| 2026-05-04 08:21 | 43.24796 | -8.02738 | 11407 ft | 291 kts | 304° |
| 2026-05-04 08:21 | 43.25631 | -8.04301 | 11257 ft | 284 kts | 304° |
| 2026-05-04 08:22 | 43.26768 | -8.06445 | 10674 ft | 280 kts | 304° |
| 2026-05-04 08:22 | 43.27907 | -8.08593 | 10066 ft | 277 kts | 304° |
| 2026-05-04 08:24 | 43.38937 | -8.12444 | 6198 ft | 272 kts | 3° |
| 2026-05-04 08:24 | 43.40825 | -8.12420 | 5807 ft | 272 kts | 352° |
| 2026-05-04 08:24 | 43.42684 | -8.12840 | 5510 ft | 268 kts | 343° |
| 2026-05-04 08:24 | 43.44460 | -8.13617 | 5177 ft | 266 kts | 336° |
| 2026-05-04 08:25 | 43.46129 | -8.14698 | 4838 ft | 266 kts | 328° |
| 2026-05-04 08:25 | 43.47649 | -8.16059 | 4695 ft | 256 kts | 321° |
| 2026-05-04 08:25 | 43.48968 | -8.17618 | 4574 ft | 240 kts | 313° |
| 2026-05-04 08:25 | 43.49742 | -8.19487 | 4491 ft | 219 kts | 277° |
| 2026-05-04 08:26 | 43.49479 | -8.21450 | 4415 ft | 208 kts | 239° |
| 2026-05-04 08:27 | 43.41005 | -8.28731 | 2660 ft | 189 kts | 214° |
| 2026-05-04 08:28 | 43.39923 | -8.29650 | 2399 ft | 176 kts | 213° |
| 2026-05-04 08:28 | 43.38936 | -8.30503 | 2172 ft | 160 kts | 214° |
| 2026-05-04 08:28 | 43.38041 | -8.31261 | 1971 ft | 143 kts | 214° |
| 2026-05-04 08:28 | 43.37221 | -8.31945 | 1765 ft | 133 kts | 213° |
| 2026-05-04 08:29 | 43.36447 | -8.32587 | 1583 ft | 128 kts | 212° |
| 2026-05-04 08:29 | 43.35705 | -8.33200 | 1427 ft | 124 kts | 213° |
| 2026-05-04 08:29 | 43.34966 | -8.33810 | 1260 ft | 124 kts | 212° |
| 2026-05-04 08:31 | 43.30008 | -8.37886 | 274 ft | 57 kts | 211° |
| 2026-05-04 08:33 | 43.29348 | -8.38433 | 270 ft | 17 kts | 31° |
| 2026-05-04 08:33 | 43.29463 | -8.38337 | 270 ft | 21 kts | 31° |
| 2026-05-04 08:35 | 43.30178 | -8.38009 | 274 ft | 4 kts | 336° |
| 2026-05-04 08:35 | 43.30184 | -8.38022 | 278 ft | 2 kts | 312° |
| 2026-05-04 08:35 | 43.30196 | -8.38024 | 274 ft | 2 kts | 358° |
| 2026-05-04 08:35 | 43.30206 | -8.38022 | 274 ft | 0 kts | 9° |